createdAt,value
2022-10-20T00:00:12.000Z,7.5
2022-10-20T00:00:27.000Z,7.599999904632568
2022-10-20T00:00:42.000Z,7.599999904632568
2022-10-20T00:00:57.000Z,7.5
2022-10-20T00:01:12.000Z,7.5
2022-10-20T00:01:27.000Z,7.5
2022-10-20T00:01:42.000Z,7.5
2022-10-20T00:01:57.000Z,7.5
2022-10-20T00:02:12.000Z,7.400000095367432
2022-10-20T00:02:27.000Z,7.400000095367432
2022-10-20T00:02:42.000Z,7.5
2022-10-20T00:02:57.000Z,7.5
2022-10-20T00:03:12.000Z,7.400000095367432
2022-10-20T00:03:27.000Z,7.300000190734863
2022-10-20T00:03:42.000Z,7.400000095367432
2022-10-20T00:03:57.000Z,7.300000190734863
2022-10-20T00:04:12.000Z,7.400000095367432
2022-10-20T00:04:27.000Z,7.400000095367432
2022-10-20T00:04:41.000Z,7.400000095367432
2022-10-20T00:04:56.000Z,7.300000190734863
2022-10-20T00:05:11.000Z,7.300000190734863
2022-10-20T00:05:26.000Z,7.300000190734863
2022-10-20T00:05:41.000Z,7.300000190734863
2022-10-20T00:05:57.000Z,7.300000190734863
2022-10-20T00:06:12.000Z,7.300000190734863
2022-10-20T00:06:27.000Z,7.300000190734863
2022-10-20T00:06:42.000Z,7.300000190734863
2022-10-20T00:06:57.000Z,7.300000190734863
2022-10-20T00:07:12.000Z,7.300000190734863
2022-10-20T00:07:27.000Z,7.300000190734863
2022-10-20T00:07:42.000Z,7.300000190734863
2022-10-20T00:07:57.000Z,7.300000190734863
2022-10-20T00:08:12.000Z,7.400000095367432
2022-10-20T00:08:27.000Z,7.400000095367432
2022-10-20T00:08:42.000Z,7.400000095367432
2022-10-20T00:08:57.000Z,7.400000095367432
2022-10-20T00:09:12.000Z,7.5
2022-10-20T00:09:27.000Z,7.5
2022-10-20T00:09:42.000Z,7.300000190734863
2022-10-20T00:09:57.000Z,7.300000190734863
2022-10-20T00:10:12.000Z,7.300000190734863
2022-10-20T00:10:27.000Z,7.400000095367432
2022-10-20T00:10:42.000Z,7.400000095367432
2022-10-20T00:10:57.000Z,7.400000095367432
2022-10-20T00:11:12.000Z,7.400000095367432
2022-10-20T00:11:27.000Z,7.300000190734863
2022-10-20T00:11:42.000Z,7.300000190734863
2022-10-20T00:11:56.000Z,7.300000190734863
2022-10-20T00:12:11.000Z,7.300000190734863
2022-10-20T00:12:26.000Z,7.300000190734863
2022-10-20T00:12:41.000Z,7.400000095367432
2022-10-20T00:12:56.000Z,7.400000095367432
2022-10-20T00:13:12.000Z,7.400000095367432
2022-10-20T00:13:27.000Z,7.300000190734863
2022-10-20T00:13:42.000Z,7.300000190734863
2022-10-20T00:13:57.000Z,7.300000190734863
2022-10-20T00:14:12.000Z,7.300000190734863
2022-10-20T00:14:27.000Z,7.300000190734863
2022-10-20T00:14:42.000Z,7.300000190734863
2022-10-20T00:14:57.000Z,7.300000190734863
2022-10-20T00:15:12.000Z,7.300000190734863
2022-10-20T00:15:27.000Z,7.300000190734863
2022-10-20T00:15:42.000Z,7.300000190734863
2022-10-20T00:15:57.000Z,7.300000190734863
2022-10-20T00:16:12.000Z,7.300000190734863
2022-10-20T00:16:27.000Z,7.300000190734863
2022-10-20T00:16:42.000Z,7.300000190734863
2022-10-20T00:16:57.000Z,7.300000190734863
2022-10-20T00:17:12.000Z,7.300000190734863
2022-10-20T00:17:27.000Z,7.300000190734863
2022-10-20T00:17:42.000Z,7.300000190734863
2022-10-20T00:17:57.000Z,7.300000190734863
2022-10-20T00:18:12.000Z,7.300000190734863
2022-10-20T00:18:27.000Z,7.300000190734863
2022-10-20T00:18:42.000Z,7.300000190734863
2022-10-20T00:18:57.000Z,7.300000190734863
2022-10-20T00:19:11.000Z,7.300000190734863
2022-10-20T00:19:26.000Z,7.400000095367432
2022-10-20T00:19:41.000Z,7.5
2022-10-20T00:19:56.000Z,7.5
2022-10-20T00:20:11.000Z,7.5
2022-10-20T00:20:27.000Z,7.5
2022-10-20T00:20:42.000Z,7.5
2022-10-20T00:20:57.000Z,7.5
2022-10-20T00:21:12.000Z,7.5
2022-10-20T00:21:27.000Z,7.5
2022-10-20T00:21:42.000Z,7.5
2022-10-20T00:21:57.000Z,7.5
2022-10-20T00:22:12.000Z,7.400000095367432
2022-10-20T00:22:27.000Z,7.5
2022-10-20T00:22:42.000Z,7.5
2022-10-20T00:22:57.000Z,7.400000095367432
2022-10-20T00:23:12.000Z,7.400000095367432
2022-10-20T00:23:27.000Z,7.5
2022-10-20T00:23:42.000Z,7.5
2022-10-20T00:23:57.000Z,7.300000190734863
2022-10-20T00:24:12.000Z,7.300000190734863
2022-10-20T00:24:27.000Z,7.300000190734863
2022-10-20T00:24:42.000Z,7.300000190734863
2022-10-20T00:24:57.000Z,7.300000190734863
2022-10-20T00:25:12.000Z,7.400000095367432
2022-10-20T00:25:27.000Z,7.5
2022-10-20T00:25:42.000Z,7.5
2022-10-20T00:25:57.000Z,7.5
2022-10-20T00:26:11.000Z,7.5
2022-10-20T00:26:26.000Z,7.599999904632568
2022-10-20T00:26:41.000Z,7.599999904632568
2022-10-20T00:26:56.000Z,7.599999904632568
2022-10-20T00:27:11.000Z,7.599999904632568
2022-10-20T00:27:26.000Z,7.599999904632568
2022-10-20T00:27:42.000Z,7.599999904632568
2022-10-20T00:27:57.000Z,7.599999904632568
2022-10-20T00:28:12.000Z,7.5
2022-10-20T00:28:27.000Z,7.5
2022-10-20T00:28:42.000Z,7.400000095367432
2022-10-20T00:28:57.000Z,7.300000190734863
2022-10-20T00:29:12.000Z,7.300000190734863
2022-10-20T00:29:27.000Z,7.300000190734863
2022-10-20T00:29:42.000Z,7.300000190734863
2022-10-20T00:29:57.000Z,7.400000095367432
2022-10-20T00:30:12.000Z,7.300000190734863
2022-10-20T00:30:27.000Z,7.400000095367432
2022-10-20T00:30:42.000Z,7.300000190734863
2022-10-20T00:30:57.000Z,7.300000190734863
2022-10-20T00:31:12.000Z,7.300000190734863
2022-10-20T00:31:27.000Z,7.400000095367432
2022-10-20T00:31:42.000Z,7.300000190734863
2022-10-20T00:31:57.000Z,7.400000095367432
2022-10-20T00:32:12.000Z,7.400000095367432
2022-10-20T00:32:27.000Z,7.400000095367432
2022-10-20T00:32:42.000Z,7.400000095367432
2022-10-20T00:32:57.000Z,7.400000095367432
2022-10-20T00:33:12.000Z,7.300000190734863
2022-10-20T00:33:26.000Z,7.300000190734863
2022-10-20T00:33:41.000Z,7.300000190734863
2022-10-20T00:33:56.000Z,7.300000190734863
2022-10-20T00:34:11.000Z,7.400000095367432
2022-10-20T00:34:26.000Z,7.300000190734863
2022-10-20T00:34:42.000Z,7.300000190734863
2022-10-20T00:34:57.000Z,7.400000095367432
2022-10-20T00:35:12.000Z,7.400000095367432
2022-10-20T00:35:27.000Z,7.400000095367432
2022-10-20T00:35:42.000Z,7.400000095367432
2022-10-20T00:35:57.000Z,7.400000095367432
2022-10-20T00:36:12.000Z,7.400000095367432
2022-10-20T00:36:27.000Z,7.5
2022-10-20T00:36:42.000Z,7.5
2022-10-20T00:36:57.000Z,7.5
2022-10-20T00:37:12.000Z,7.5
2022-10-20T00:37:27.000Z,7.5
2022-10-20T00:37:42.000Z,7.5
2022-10-20T00:37:57.000Z,7.5
2022-10-20T00:38:12.000Z,7.5
2022-10-20T00:38:27.000Z,7.5
2022-10-20T00:38:42.000Z,7.5
2022-10-20T00:38:57.000Z,7.5
2022-10-20T00:39:12.000Z,7.400000095367432
2022-10-20T00:39:27.000Z,7.300000190734863
2022-10-20T00:39:42.000Z,7.199999809265137
2022-10-20T00:39:57.000Z,7.300000190734863
2022-10-20T00:40:12.000Z,7.300000190734863
2022-10-20T00:40:27.000Z,7.300000190734863
2022-10-20T00:40:41.000Z,7.300000190734863
2022-10-20T00:40:56.000Z,7.300000190734863
2022-10-20T00:41:11.000Z,7.300000190734863
2022-10-20T00:41:26.000Z,7.400000095367432
2022-10-20T00:41:41.000Z,7.400000095367432
2022-10-20T00:41:57.000Z,7.5
2022-10-20T00:42:12.000Z,7.5
2022-10-20T00:42:27.000Z,7.5
2022-10-20T00:42:42.000Z,7.5
2022-10-20T00:42:57.000Z,7.5
2022-10-20T00:43:12.000Z,7.599999904632568
2022-10-20T00:43:27.000Z,7.599999904632568
2022-10-20T00:43:42.000Z,7.599999904632568
2022-10-20T00:43:57.000Z,7.599999904632568
2022-10-20T00:44:12.000Z,7.599999904632568
2022-10-20T00:44:27.000Z,7.599999904632568
2022-10-20T00:44:42.000Z,7.599999904632568
2022-10-20T00:44:57.000Z,7.599999904632568
2022-10-20T00:45:12.000Z,7.599999904632568
2022-10-20T00:45:27.000Z,7.599999904632568
2022-10-20T00:45:42.000Z,7.599999904632568
2022-10-20T00:45:57.000Z,7.599999904632568
2022-10-20T00:46:12.000Z,7.599999904632568
2022-10-20T00:46:27.000Z,7.5
2022-10-20T00:46:42.000Z,7.5
2022-10-20T00:46:57.000Z,7.5
2022-10-20T00:47:12.000Z,7.5
2022-10-20T00:47:27.000Z,7.5
2022-10-20T00:47:42.000Z,7.5
2022-10-20T00:47:56.000Z,7.5
2022-10-20T00:48:11.000Z,7.5
2022-10-20T00:48:26.000Z,7.400000095367432
2022-10-20T00:48:41.000Z,7.400000095367432
2022-10-20T00:48:56.000Z,7.400000095367432
2022-10-20T00:49:12.000Z,7.5
2022-10-20T00:49:27.000Z,7.5
2022-10-20T00:49:42.000Z,7.400000095367432
2022-10-20T00:49:57.000Z,7.300000190734863
2022-10-20T00:50:12.000Z,7.300000190734863
2022-10-20T00:50:27.000Z,7.300000190734863
2022-10-20T00:50:42.000Z,7.300000190734863
2022-10-20T00:50:57.000Z,7.300000190734863
2022-10-20T00:51:12.000Z,7.300000190734863
2022-10-20T00:51:27.000Z,7.300000190734863
2022-10-20T00:51:42.000Z,7.300000190734863
2022-10-20T00:51:57.000Z,7.300000190734863
2022-10-20T00:52:12.000Z,7.300000190734863
2022-10-20T00:52:27.000Z,7.300000190734863
2022-10-20T00:52:42.000Z,7.300000190734863
2022-10-20T00:52:57.000Z,7.300000190734863
2022-10-20T00:53:12.000Z,7.300000190734863
2022-10-20T00:53:27.000Z,7.300000190734863
2022-10-20T00:53:42.000Z,7.300000190734863
2022-10-20T00:53:57.000Z,7.300000190734863
2022-10-20T00:54:12.000Z,7.300000190734863
2022-10-20T00:54:27.000Z,7.300000190734863
2022-10-20T00:54:42.000Z,7.300000190734863
2022-10-20T00:54:57.000Z,7.300000190734863
2022-10-20T00:55:11.000Z,7.300000190734863
2022-10-20T00:55:26.000Z,7.300000190734863
2022-10-20T00:55:41.000Z,7.300000190734863
2022-10-20T00:55:56.000Z,7.300000190734863
2022-10-20T00:56:11.000Z,7.400000095367432
2022-10-20T00:56:27.000Z,7.400000095367432
2022-10-20T00:56:42.000Z,7.300000190734863
2022-10-20T00:56:57.000Z,7.400000095367432
2022-10-20T00:57:12.000Z,7.300000190734863
2022-10-20T00:57:27.000Z,7.300000190734863
2022-10-20T00:57:42.000Z,7.300000190734863
2022-10-20T00:57:57.000Z,7.400000095367432
2022-10-20T00:58:12.000Z,7.400000095367432
2022-10-20T00:58:27.000Z,7.300000190734863
2022-10-20T00:58:42.000Z,7.400000095367432
2022-10-20T00:58:57.000Z,7.400000095367432
2022-10-20T00:59:12.000Z,7.400000095367432
2022-10-20T00:59:27.000Z,7.400000095367432
2022-10-20T00:59:42.000Z,7.400000095367432
2022-10-20T00:59:57.000Z,7.400000095367432
2022-10-20T01:00:12.000Z,7.300000190734863
2022-10-20T01:00:27.000Z,7.300000190734863
2022-10-20T01:00:42.000Z,7.300000190734863
2022-10-20T01:00:57.000Z,7.300000190734863
2022-10-20T01:01:12.000Z,7.300000190734863
2022-10-20T01:01:27.000Z,7.199999809265137
2022-10-20T01:01:42.000Z,7.199999809265137
2022-10-20T01:01:57.000Z,7.300000190734863
2022-10-20T01:02:11.000Z,7.300000190734863
2022-10-20T01:02:26.000Z,7.300000190734863
2022-10-20T01:02:41.000Z,7.300000190734863
2022-10-20T01:02:56.000Z,7.300000190734863
2022-10-20T01:03:11.000Z,7.199999809265137
2022-10-20T01:03:26.000Z,7.300000190734863
2022-10-20T01:03:42.000Z,7.300000190734863
2022-10-20T01:03:57.000Z,7.300000190734863
2022-10-20T01:04:12.000Z,7.199999809265137
2022-10-20T01:04:27.000Z,7.199999809265137
2022-10-20T01:04:42.000Z,7.199999809265137
2022-10-20T01:04:57.000Z,7.199999809265137
2022-10-20T01:05:12.000Z,7.199999809265137
2022-10-20T01:05:27.000Z,7.300000190734863
2022-10-20T01:05:42.000Z,7.300000190734863
2022-10-20T01:05:57.000Z,7.300000190734863
2022-10-20T01:06:12.000Z,7.300000190734863
2022-10-20T01:06:27.000Z,7.199999809265137
2022-10-20T01:06:42.000Z,7.199999809265137
2022-10-20T01:06:57.000Z,7.199999809265137
2022-10-20T01:07:12.000Z,7.199999809265137
2022-10-20T01:07:27.000Z,7.300000190734863
2022-10-20T01:07:42.000Z,7.199999809265137
2022-10-20T01:07:57.000Z,7.300000190734863
2022-10-20T01:08:12.000Z,7.300000190734863
2022-10-20T01:08:27.000Z,7.199999809265137
2022-10-20T01:08:42.000Z,7.199999809265137
2022-10-20T01:08:57.000Z,7.199999809265137
2022-10-20T01:09:12.000Z,7.199999809265137
2022-10-20T01:09:26.000Z,7.300000190734863
2022-10-20T01:09:41.000Z,7.199999809265137
2022-10-20T01:09:56.000Z,7.199999809265137
2022-10-20T01:10:11.000Z,7.199999809265137
2022-10-20T01:10:26.000Z,7.199999809265137
2022-10-20T01:10:41.000Z,7.199999809265137
2022-10-20T01:10:57.000Z,7.199999809265137
2022-10-20T01:11:12.000Z,7.199999809265137
2022-10-20T01:11:27.000Z,7.199999809265137
2022-10-20T01:11:42.000Z,7.199999809265137
2022-10-20T01:11:57.000Z,7.199999809265137
2022-10-20T01:12:12.000Z,7.199999809265137
2022-10-20T01:12:27.000Z,7.300000190734863
2022-10-20T01:12:42.000Z,7.300000190734863
2022-10-20T01:12:57.000Z,7.300000190734863
2022-10-20T01:13:12.000Z,7.199999809265137
2022-10-20T01:13:27.000Z,7.199999809265137
2022-10-20T01:13:42.000Z,7.199999809265137
2022-10-20T01:13:57.000Z,7.300000190734863
2022-10-20T01:14:12.000Z,7.300000190734863
2022-10-20T01:14:27.000Z,7.300000190734863
2022-10-20T01:14:42.000Z,7.300000190734863
2022-10-20T01:14:57.000Z,7.300000190734863
2022-10-20T01:15:12.000Z,7.199999809265137
2022-10-20T01:15:27.000Z,7.199999809265137
2022-10-20T01:15:42.000Z,7.099999904632568
2022-10-20T01:15:57.000Z,7.099999904632568
2022-10-20T01:16:12.000Z,7.199999809265137
2022-10-20T01:16:27.000Z,7.099999904632568
2022-10-20T01:16:41.000Z,7.099999904632568
2022-10-20T01:16:56.000Z,7.199999809265137
2022-10-20T01:17:11.000Z,7.199999809265137
2022-10-20T01:17:26.000Z,7.199999809265137
2022-10-20T01:17:41.000Z,7.099999904632568
2022-10-20T01:17:56.000Z,7.099999904632568
2022-10-20T01:18:12.000Z,7.099999904632568
2022-10-20T01:18:27.000Z,7.099999904632568
2022-10-20T01:18:42.000Z,7.099999904632568
2022-10-20T01:18:57.000Z,7.0
2022-10-20T01:19:12.000Z,7.0
2022-10-20T01:19:27.000Z,7.099999904632568
2022-10-20T01:19:42.000Z,7.099999904632568
2022-10-20T01:19:57.000Z,7.099999904632568
2022-10-20T01:20:12.000Z,7.099999904632568
2022-10-20T01:20:27.000Z,7.0
2022-10-20T01:20:42.000Z,7.099999904632568
2022-10-20T01:20:57.000Z,7.0
2022-10-20T01:21:12.000Z,6.900000095367432
2022-10-20T01:21:27.000Z,6.800000190734863
2022-10-20T01:21:42.000Z,6.699999809265137
2022-10-20T01:21:57.000Z,6.699999809265137
2022-10-20T01:22:12.000Z,6.800000190734863
2022-10-20T01:22:27.000Z,6.900000095367432
2022-10-20T01:22:42.000Z,7.0
2022-10-20T01:22:57.000Z,7.0
2022-10-20T01:23:12.000Z,6.900000095367432
2022-10-20T01:23:27.000Z,7.0
2022-10-20T01:23:42.000Z,7.099999904632568
2022-10-20T01:23:57.000Z,7.099999904632568
2022-10-20T01:24:11.000Z,7.099999904632568
2022-10-20T01:24:41.000Z,7.099999904632568
2022-10-20T01:24:56.000Z,7.199999809265137
2022-10-20T01:25:11.000Z,7.099999904632568
2022-10-20T01:25:27.000Z,7.199999809265137
2022-10-20T01:25:42.000Z,7.199999809265137
2022-10-20T01:25:57.000Z,7.199999809265137
2022-10-20T01:26:12.000Z,7.199999809265137
2022-10-20T01:26:27.000Z,7.199999809265137
2022-10-20T01:26:42.000Z,7.199999809265137
2022-10-20T01:26:57.000Z,7.199999809265137
2022-10-20T01:27:12.000Z,7.199999809265137
2022-10-20T01:27:27.000Z,7.199999809265137
2022-10-20T01:27:42.000Z,7.199999809265137
2022-10-20T01:27:57.000Z,7.199999809265137
2022-10-20T01:28:12.000Z,7.199999809265137
2022-10-20T01:28:27.000Z,7.199999809265137
2022-10-20T01:28:42.000Z,7.199999809265137
2022-10-20T01:28:57.000Z,7.199999809265137
2022-10-20T01:29:12.000Z,7.199999809265137
2022-10-20T01:29:27.000Z,7.199999809265137
2022-10-20T01:29:42.000Z,7.300000190734863
2022-10-20T01:29:57.000Z,7.199999809265137
2022-10-20T01:30:12.000Z,7.199999809265137
2022-10-20T01:30:27.000Z,7.300000190734863
2022-10-20T01:30:42.000Z,7.300000190734863
2022-10-20T01:30:57.000Z,7.300000190734863
2022-10-20T01:31:11.000Z,7.300000190734863
2022-10-20T01:31:26.000Z,7.199999809265137
2022-10-20T01:31:41.000Z,7.300000190734863
2022-10-20T01:31:56.000Z,7.300000190734863
2022-10-20T01:32:11.000Z,7.300000190734863
2022-10-20T01:32:26.000Z,7.300000190734863
2022-10-20T01:32:42.000Z,7.300000190734863
2022-10-20T01:32:57.000Z,7.300000190734863
2022-10-20T01:33:12.000Z,7.300000190734863
2022-10-20T01:33:42.000Z,7.300000190734863
2022-10-20T01:33:57.000Z,7.300000190734863
2022-10-20T01:34:12.000Z,7.300000190734863
2022-10-20T01:34:27.000Z,7.300000190734863
2022-10-20T01:34:42.000Z,7.300000190734863
2022-10-20T01:34:57.000Z,7.300000190734863
2022-10-20T01:35:12.000Z,7.300000190734863
2022-10-20T01:35:27.000Z,7.300000190734863
2022-10-20T01:35:42.000Z,7.300000190734863
2022-10-20T01:35:57.000Z,7.300000190734863
2022-10-20T01:36:12.000Z,7.300000190734863
2022-10-20T01:36:27.000Z,7.300000190734863
2022-10-20T01:36:42.000Z,7.300000190734863
2022-10-20T01:36:57.000Z,7.300000190734863
2022-10-20T01:37:12.000Z,7.300000190734863
2022-10-20T01:37:42.000Z,7.300000190734863
2022-10-20T01:37:57.000Z,7.300000190734863
2022-10-20T01:38:12.000Z,7.300000190734863
2022-10-20T01:38:27.000Z,7.300000190734863
2022-10-20T01:38:41.000Z,7.199999809265137
2022-10-20T01:38:56.000Z,7.300000190734863
2022-10-20T01:39:11.000Z,7.300000190734863
2022-10-20T01:39:26.000Z,7.199999809265137
2022-10-20T01:39:41.000Z,7.199999809265137
2022-10-20T01:39:57.000Z,7.199999809265137
2022-10-20T01:40:12.000Z,7.199999809265137
2022-10-20T01:40:27.000Z,7.300000190734863
2022-10-20T01:40:42.000Z,7.300000190734863
2022-10-20T01:40:57.000Z,7.300000190734863
2022-10-20T01:41:12.000Z,7.300000190734863
2022-10-20T01:41:27.000Z,7.300000190734863
2022-10-20T01:41:42.000Z,7.0
2022-10-20T01:41:57.000Z,7.0
2022-10-20T01:42:12.000Z,7.099999904632568
2022-10-20T01:42:27.000Z,7.099999904632568
2022-10-20T01:42:42.000Z,7.0
2022-10-20T01:42:57.000Z,7.099999904632568
2022-10-20T01:43:12.000Z,7.099999904632568
2022-10-20T01:43:27.000Z,7.099999904632568
2022-10-20T01:43:42.000Z,7.099999904632568
2022-10-20T01:43:57.000Z,7.099999904632568
2022-10-20T01:44:12.000Z,7.0
2022-10-20T01:44:27.000Z,7.0
2022-10-20T01:44:42.000Z,6.900000095367432
2022-10-20T01:44:57.000Z,6.900000095367432
2022-10-20T01:45:12.000Z,7.0
2022-10-20T01:45:27.000Z,7.0
2022-10-20T01:45:42.000Z,7.099999904632568
2022-10-20T01:45:56.000Z,7.099999904632568
2022-10-20T01:46:11.000Z,7.099999904632568
2022-10-20T01:46:26.000Z,7.099999904632568
2022-10-20T01:46:41.000Z,7.099999904632568
2022-10-20T01:46:56.000Z,7.099999904632568
2022-10-20T01:47:11.000Z,7.099999904632568
2022-10-20T01:47:27.000Z,7.099999904632568
2022-10-20T01:47:42.000Z,7.099999904632568
2022-10-20T01:47:57.000Z,7.199999809265137
2022-10-20T01:48:12.000Z,7.199999809265137
2022-10-20T01:48:27.000Z,7.199999809265137
2022-10-20T01:48:42.000Z,7.0
2022-10-20T01:48:57.000Z,7.099999904632568
2022-10-20T01:49:12.000Z,7.099999904632568
2022-10-20T01:49:27.000Z,7.199999809265137
2022-10-20T01:49:42.000Z,7.199999809265137
2022-10-20T01:49:57.000Z,7.199999809265137
2022-10-20T01:50:12.000Z,7.199999809265137
2022-10-20T01:50:27.000Z,7.199999809265137
2022-10-20T01:50:42.000Z,7.300000190734863
2022-10-20T01:50:57.000Z,7.300000190734863
2022-10-20T01:51:12.000Z,7.199999809265137
2022-10-20T01:51:27.000Z,7.300000190734863
2022-10-20T01:51:42.000Z,7.300000190734863
2022-10-20T01:51:57.000Z,7.300000190734863
2022-10-20T01:52:12.000Z,7.300000190734863
2022-10-20T01:52:27.000Z,7.300000190734863
2022-10-20T01:52:42.000Z,7.300000190734863
2022-10-20T01:52:57.000Z,7.300000190734863
2022-10-20T01:53:11.000Z,7.300000190734863
2022-10-20T01:53:26.000Z,7.300000190734863
2022-10-20T01:53:41.000Z,7.300000190734863
2022-10-20T01:53:56.000Z,7.300000190734863
2022-10-20T01:54:11.000Z,7.300000190734863
2022-10-20T01:54:26.000Z,7.300000190734863
2022-10-20T01:54:42.000Z,7.300000190734863
2022-10-20T01:54:57.000Z,7.300000190734863
2022-10-20T01:55:12.000Z,7.300000190734863
2022-10-20T01:55:27.000Z,7.300000190734863
2022-10-20T01:55:42.000Z,7.300000190734863
2022-10-20T01:55:57.000Z,7.300000190734863
2022-10-20T01:56:12.000Z,7.300000190734863
2022-10-20T01:56:27.000Z,7.300000190734863
2022-10-20T01:56:42.000Z,7.300000190734863
2022-10-20T01:56:57.000Z,7.300000190734863
2022-10-20T01:57:12.000Z,7.199999809265137
2022-10-20T01:57:27.000Z,7.300000190734863
2022-10-20T01:57:42.000Z,7.300000190734863
2022-10-20T01:57:57.000Z,7.300000190734863
2022-10-20T01:58:12.000Z,7.300000190734863
2022-10-20T01:58:27.000Z,7.300000190734863
2022-10-20T01:58:42.000Z,7.300000190734863
2022-10-20T01:58:57.000Z,7.300000190734863
2022-10-20T01:59:12.000Z,7.300000190734863
2022-10-20T01:59:27.000Z,7.300000190734863
2022-10-20T01:59:42.000Z,7.300000190734863
2022-10-20T01:59:57.000Z,7.300000190734863
2022-10-20T02:00:12.000Z,7.300000190734863
2022-10-20T02:00:26.000Z,7.300000190734863
2022-10-20T02:00:41.000Z,7.199999809265137
2022-10-20T02:00:56.000Z,7.199999809265137
2022-10-20T02:01:11.000Z,7.099999904632568
2022-10-20T02:01:26.000Z,7.099999904632568
2022-10-20T02:01:41.000Z,7.099999904632568
2022-10-20T02:01:57.000Z,7.199999809265137
2022-10-20T02:02:12.000Z,7.199999809265137
2022-10-20T02:02:27.000Z,7.199999809265137
2022-10-20T02:02:42.000Z,7.300000190734863
2022-10-20T02:02:57.000Z,7.300000190734863
2022-10-20T02:03:12.000Z,7.300000190734863
2022-10-20T02:03:27.000Z,7.300000190734863
2022-10-20T02:03:42.000Z,7.300000190734863
2022-10-20T02:03:57.000Z,7.300000190734863
2022-10-20T02:04:12.000Z,7.300000190734863
2022-10-20T02:04:27.000Z,7.300000190734863
2022-10-20T02:04:42.000Z,7.300000190734863
2022-10-20T02:04:57.000Z,7.300000190734863
2022-10-20T02:05:12.000Z,7.300000190734863
2022-10-20T02:05:27.000Z,7.300000190734863
2022-10-20T02:05:42.000Z,7.300000190734863
2022-10-20T02:05:57.000Z,7.300000190734863
2022-10-20T02:06:12.000Z,7.300000190734863
2022-10-20T02:06:27.000Z,7.300000190734863
2022-10-20T02:06:42.000Z,7.300000190734863
2022-10-20T02:06:57.000Z,7.300000190734863
2022-10-20T02:07:12.000Z,7.300000190734863
2022-10-20T02:07:27.000Z,7.300000190734863
2022-10-20T02:07:41.000Z,7.300000190734863
2022-10-20T02:07:56.000Z,7.300000190734863
2022-10-20T02:08:11.000Z,7.300000190734863
2022-10-20T02:08:26.000Z,7.300000190734863
2022-10-20T02:08:41.000Z,7.300000190734863
2022-10-20T02:08:56.000Z,7.300000190734863
2022-10-20T02:09:12.000Z,7.300000190734863
2022-10-20T02:09:27.000Z,7.300000190734863
2022-10-20T02:09:42.000Z,7.300000190734863
2022-10-20T02:09:57.000Z,7.300000190734863
2022-10-20T02:10:12.000Z,7.300000190734863
2022-10-20T02:10:27.000Z,7.300000190734863
2022-10-20T02:10:42.000Z,7.300000190734863
2022-10-20T02:10:57.000Z,7.300000190734863
2022-10-20T02:11:12.000Z,7.099999904632568
2022-10-20T02:11:27.000Z,7.099999904632568
2022-10-20T02:11:42.000Z,7.0
2022-10-20T02:11:57.000Z,7.0
2022-10-20T02:12:12.000Z,7.0
2022-10-20T02:12:27.000Z,7.099999904632568
2022-10-20T02:12:42.000Z,7.099999904632568
2022-10-20T02:12:57.000Z,7.0
2022-10-20T02:13:12.000Z,7.099999904632568
2022-10-20T02:13:27.000Z,7.099999904632568
2022-10-20T02:13:42.000Z,7.099999904632568
2022-10-20T02:13:57.000Z,7.0
2022-10-20T02:14:12.000Z,7.0
2022-10-20T02:14:27.000Z,7.0
2022-10-20T02:14:42.000Z,7.0
2022-10-20T02:14:56.000Z,7.0
2022-10-20T02:15:11.000Z,7.0
2022-10-20T02:15:26.000Z,7.0
2022-10-20T02:15:41.000Z,7.0
2022-10-20T02:15:56.000Z,7.099999904632568
2022-10-20T02:16:11.000Z,7.099999904632568
2022-10-20T02:16:27.000Z,7.099999904632568
2022-10-20T02:16:42.000Z,7.099999904632568
2022-10-20T02:16:57.000Z,7.0
2022-10-20T02:17:12.000Z,7.099999904632568
2022-10-20T02:17:27.000Z,7.0
2022-10-20T02:17:42.000Z,7.0
2022-10-20T02:17:57.000Z,7.0
2022-10-20T02:18:12.000Z,7.0
2022-10-20T02:18:27.000Z,6.900000095367432
2022-10-20T02:18:42.000Z,6.800000190734863
2022-10-20T02:19:12.000Z,7.0
2022-10-20T02:19:27.000Z,7.0
2022-10-20T02:19:42.000Z,7.099999904632568
2022-10-20T02:19:57.000Z,7.099999904632568
2022-10-20T02:20:12.000Z,6.900000095367432
2022-10-20T02:20:27.000Z,6.800000190734863
2022-10-20T02:20:42.000Z,6.900000095367432
2022-10-20T02:20:57.000Z,6.900000095367432
2022-10-20T02:21:12.000Z,7.0
2022-10-20T02:21:27.000Z,7.0
2022-10-20T02:21:42.000Z,6.900000095367432
2022-10-20T02:21:57.000Z,6.900000095367432
2022-10-20T02:22:11.000Z,6.900000095367432
2022-10-20T02:22:26.000Z,6.900000095367432
2022-10-20T02:22:41.000Z,6.900000095367432
2022-10-20T02:22:56.000Z,6.900000095367432
2022-10-20T02:23:11.000Z,7.0
2022-10-20T02:23:26.000Z,7.0
2022-10-20T02:23:42.000Z,7.0
2022-10-20T02:23:57.000Z,7.099999904632568
2022-10-20T02:24:12.000Z,7.0
2022-10-20T02:24:27.000Z,6.900000095367432
2022-10-20T02:24:42.000Z,6.900000095367432
2022-10-20T02:24:57.000Z,6.800000190734863
2022-10-20T02:25:12.000Z,6.900000095367432
2022-10-20T02:25:27.000Z,6.900000095367432
2022-10-20T02:25:42.000Z,7.0
2022-10-20T02:25:57.000Z,6.900000095367432
2022-10-20T02:26:12.000Z,7.0
2022-10-20T02:26:27.000Z,7.099999904632568
2022-10-20T02:26:42.000Z,7.0
2022-10-20T02:26:57.000Z,7.0
2022-10-20T02:27:12.000Z,6.900000095367432
2022-10-20T02:27:27.000Z,7.0
2022-10-20T02:27:42.000Z,7.0
2022-10-20T02:27:57.000Z,7.0
2022-10-20T02:28:12.000Z,7.0
2022-10-20T02:28:27.000Z,7.0
2022-10-20T02:28:42.000Z,7.0
2022-10-20T02:28:57.000Z,6.900000095367432